createdAt,value
2023-03-05T00:01:35.284Z,99.90
2023-03-05T00:04:06.311Z,99.90
2023-03-05T00:06:35.142Z,99.90
2023-03-05T00:09:04.700Z,99.90
2023-03-05T00:11:33.707Z,99.90
2023-03-05T00:14:03.859Z,99.90
2023-03-05T00:16:32.431Z,99.90
2023-03-05T00:19:01.828Z,99.90
2023-03-05T00:21:38.480Z,99.90
2023-03-05T00:24:09.900Z,99.90
2023-03-05T00:26:39.715Z,99.90
2023-03-05T00:29:09.456Z,99.90
2023-03-05T00:31:39.049Z,99.90
2023-03-05T00:34:11.639Z,99.90
2023-03-05T00:36:45.382Z,99.90
2023-03-05T00:39:14.618Z,99.90
2023-03-05T00:41:42.984Z,99.90
2023-03-05T00:44:11.417Z,99.90
2023-03-05T00:46:39.714Z,99.90
2023-03-05T00:49:08.141Z,99.90
2023-03-05T00:51:36.609Z,99.90
2023-03-05T00:54:05.979Z,99.90
2023-03-05T00:56:34.842Z,99.90
2023-03-05T00:59:04.165Z,99.90
2023-03-05T01:01:32.659Z,99.90
2023-03-05T01:04:00.737Z,99.90
2023-03-05T01:06:29.078Z,99.90
2023-03-05T01:08:57.428Z,99.90
2023-03-05T01:11:25.674Z,99.90
2023-03-05T01:13:53.693Z,99.90
2023-03-05T01:16:22.035Z,99.90
2023-03-05T01:18:50.280Z,99.90
2023-03-05T01:21:18.494Z,99.90
2023-03-05T01:23:46.842Z,99.90
2023-03-05T01:26:15.277Z,99.90
2023-03-05T01:28:43.488Z,99.90
2023-03-05T01:31:12.523Z,99.90
2023-03-05T01:33:41.048Z,99.90
2023-03-05T01:36:11.441Z,99.90
2023-03-05T01:38:40.004Z,99.90
2023-03-05T01:41:08.981Z,99.90
2023-03-05T01:43:37.396Z,99.90
2023-03-05T01:46:28.767Z,99.90
2023-03-05T01:49:18.545Z,99.90
2023-03-05T01:52:10.562Z,99.90
2023-03-05T01:54:47.496Z,99.90
2023-03-05T01:57:23.293Z,99.90
2023-03-05T01:59:56.305Z,99.90
2023-03-05T02:02:25.832Z,99.90
2023-03-05T02:05:04.759Z,99.90
2023-03-05T02:07:34.354Z,99.90
2023-03-05T02:10:02.590Z,99.90
2023-03-05T02:12:30.913Z,99.90
2023-03-05T02:14:59.360Z,99.90
2023-03-05T02:17:31.017Z,99.90
2023-03-05T02:20:04.812Z,99.90
2023-03-05T02:22:33.201Z,99.90
2023-03-05T02:25:01.388Z,99.90
2023-03-05T02:27:34.333Z,99.90
2023-03-05T02:30:03.570Z,99.90
2023-03-05T02:32:31.757Z,99.90
2023-03-05T02:35:00.168Z,99.90
2023-03-05T02:37:29.271Z,99.90
2023-03-05T02:39:57.370Z,99.90
2023-03-05T02:42:25.893Z,99.90
2023-03-05T02:44:54.280Z,99.90
2023-03-05T02:47:22.643Z,99.90
2023-03-05T02:49:50.823Z,99.90
2023-03-05T02:52:19.468Z,99.90
2023-03-05T02:54:47.816Z,99.90
2023-03-05T02:57:15.972Z,99.90
2023-03-05T03:11:34.881Z,99.90
2023-03-05T03:14:03.085Z,99.90
2023-03-05T03:16:31.381Z,99.90
2023-03-05T03:18:59.658Z,99.90
2023-03-05T03:21:28.092Z,99.90
2023-03-05T03:23:56.320Z,99.90
2023-03-05T03:26:24.884Z,99.90
2023-03-05T03:28:53.257Z,99.90
2023-03-05T03:31:21.639Z,99.90
2023-03-05T03:33:49.883Z,99.90
2023-03-05T03:36:18.217Z,99.90
2023-03-05T03:38:46.310Z,99.90
2023-03-05T03:41:14.634Z,99.90
2023-03-05T03:43:42.868Z,99.90
2023-03-05T03:46:11.121Z,99.90
2023-03-05T03:48:39.482Z,99.90
2023-03-05T03:51:08.682Z,99.90
2023-03-05T03:53:36.979Z,99.90
2023-03-05T03:56:05.558Z,99.90
2023-03-05T03:58:33.796Z,99.90
2023-03-05T04:01:02.109Z,99.90
2023-03-05T04:03:30.413Z,99.90
2023-03-05T04:05:58.689Z,99.90
2023-03-05T04:08:26.878Z,99.90
2023-03-05T04:10:55.152Z,99.90
2023-03-05T04:13:23.526Z,99.90
2023-03-05T04:15:51.739Z,99.90
2023-03-05T04:18:19.857Z,99.90
2023-03-05T04:20:48.642Z,99.90
2023-03-05T04:23:16.809Z,99.90
2023-03-05T04:25:45.213Z,99.90
2023-03-05T04:28:13.561Z,99.90
2023-03-05T04:30:41.731Z,99.90
2023-03-05T04:33:09.928Z,99.90
2023-03-05T04:35:38.263Z,99.90
2023-03-05T04:38:06.608Z,99.90
2023-03-05T04:40:35.771Z,99.90
2023-03-05T04:43:04.474Z,99.90
2023-03-05T04:45:32.809Z,99.90
2023-03-05T04:48:01.009Z,99.90
2023-03-05T04:50:29.235Z,99.90
2023-03-05T04:52:57.407Z,99.90
2023-03-05T04:55:25.777Z,99.90
2023-03-05T04:57:54.372Z,99.90
2023-03-05T05:00:22.668Z,99.90
2023-03-05T05:02:52.641Z,99.90
2023-03-05T05:05:26.541Z,99.90
2023-03-05T05:07:56.899Z,99.90
2023-03-05T05:10:26.328Z,99.90
2023-03-05T05:12:54.877Z,99.90
2023-03-05T05:15:23.025Z,99.90
2023-03-05T05:17:51.389Z,99.90
2023-03-05T05:20:19.703Z,99.90
2023-03-05T05:22:47.905Z,99.90
2023-03-05T05:25:16.162Z,99.90
2023-03-05T05:27:44.355Z,99.90
2023-03-05T05:30:13.133Z,99.90
2023-03-05T05:32:41.482Z,99.90
2023-03-05T05:35:10.399Z,99.90
2023-03-05T05:37:38.612Z,99.90
2023-03-05T05:40:07.769Z,99.90
2023-03-05T05:42:35.923Z,99.90
2023-03-05T05:45:04.316Z,99.90
2023-03-05T05:47:32.663Z,99.90
2023-03-05T05:50:00.918Z,99.90
2023-03-05T05:52:29.148Z,99.90
2023-03-05T05:54:57.464Z,99.90
2023-03-05T05:57:25.548Z,99.90
2023-03-05T05:59:53.896Z,99.90
2023-03-05T06:02:22.275Z,99.90
2023-03-05T06:04:50.537Z,99.90
2023-03-05T06:07:18.746Z,99.90
2023-03-05T06:09:47.046Z,99.90
2023-03-05T06:12:15.360Z,99.90
2023-03-05T06:14:43.683Z,99.90
2023-03-05T06:17:14.770Z,99.90
2023-03-05T06:19:45.193Z,99.90
2023-03-05T06:22:13.621Z,99.90
2023-03-05T06:24:41.992Z,99.90
2023-03-05T06:27:10.094Z,99.90
2023-03-05T06:29:38.359Z,99.90
2023-03-05T06:32:06.947Z,99.90
2023-03-05T06:34:35.240Z,99.90
2023-03-05T06:37:03.443Z,99.90
2023-03-05T06:39:31.758Z,99.90
2023-03-05T06:42:00.009Z,99.90
2023-03-05T06:44:28.421Z,99.90
2023-03-05T06:46:56.585Z,99.90
2023-03-05T06:49:24.840Z,99.90
2023-03-05T06:51:53.119Z,99.90
2023-03-05T06:54:21.518Z,99.90
2023-03-05T06:56:49.787Z,99.90
2023-03-05T06:59:18.492Z,99.90
2023-03-05T07:01:46.645Z,99.90
2023-03-05T07:04:15.861Z,99.90
2023-03-05T07:06:44.337Z,99.90
2023-03-05T07:09:16.429Z,99.90
2023-03-05T07:11:44.870Z,99.90
2023-03-05T07:14:13.179Z,99.90
2023-03-05T07:16:41.593Z,99.90
2023-03-05T07:19:09.700Z,99.90
2023-03-05T07:21:39.874Z,99.90
2023-03-05T07:24:09.432Z,99.90
2023-03-05T07:26:37.503Z,99.90
2023-03-05T07:29:05.767Z,99.90
2023-03-05T07:31:34.139Z,99.90
2023-03-05T07:34:03.766Z,99.90
2023-03-05T07:36:32.426Z,99.90
2023-03-05T07:39:00.971Z,99.90
2023-03-05T07:41:29.364Z,99.90
2023-03-05T07:43:57.623Z,99.90
2023-03-05T07:46:29.327Z,99.90
2023-03-05T07:48:58.307Z,99.90
2023-03-05T07:51:27.838Z,99.90
2023-03-05T07:53:58.339Z,99.90
2023-03-05T07:56:27.980Z,99.90
2023-03-05T07:58:56.262Z,99.90
2023-03-05T08:01:24.949Z,99.90
2023-03-05T08:03:53.289Z,99.90
2023-03-05T08:06:21.962Z,99.90
2023-03-05T08:08:50.300Z,99.90
2023-03-05T08:11:18.866Z,99.90
2023-03-05T08:13:47.376Z,99.90
2023-03-05T08:16:22.661Z,99.90
2023-03-05T08:18:51.046Z,99.90
2023-03-05T08:21:33.068Z,99.90
2023-03-05T08:24:04.288Z,99.90
2023-03-05T08:26:34.939Z,99.90
2023-03-05T08:29:03.341Z,99.90
2023-03-05T08:31:32.638Z,99.90
2023-03-05T08:34:02.384Z,99.90
2023-03-05T08:36:30.774Z,99.90
2023-03-05T08:38:59.103Z,99.90
2023-03-05T08:41:27.437Z,99.90
2023-03-05T08:43:55.752Z,99.90
2023-03-05T08:46:24.125Z,99.90
2023-03-05T08:48:52.442Z,99.90
2023-03-05T08:51:23.443Z,99.90
2023-03-05T08:53:52.441Z,99.90
2023-03-05T08:56:20.848Z,99.90
2023-03-05T08:58:49.223Z,99.90
2023-03-05T09:01:17.497Z,99.90
2023-03-05T09:03:45.956Z,99.90
2023-03-05T09:06:14.280Z,99.90
2023-03-05T09:22:26.779Z,99.90
2023-03-05T09:24:55.174Z,99.90
2023-03-05T09:27:23.481Z,99.90
2023-03-05T09:29:51.757Z,99.90
2023-03-05T09:32:20.091Z,99.90
2023-03-05T09:34:48.340Z,99.90
2023-03-05T09:37:16.569Z,99.90
2023-03-05T09:39:44.994Z,99.90
2023-03-05T09:42:30.150Z,99.90
2023-03-05T09:45:20.568Z,99.90
2023-03-05T09:48:16.521Z,99.90
2023-03-05T09:50:49.295Z,99.90
2023-03-05T09:53:44.915Z,99.90
2023-03-05T09:56:21.482Z,99.90
2023-03-05T09:58:57.383Z,99.90
2023-03-05T10:01:46.315Z,99.90
2023-03-05T10:04:34.353Z,99.90
2023-03-05T10:07:14.602Z,99.90
2023-03-05T10:09:47.198Z,99.90
2023-03-05T10:12:26.301Z,99.90
2023-03-05T10:14:56.174Z,99.90
2023-03-05T10:17:48.872Z,99.90
2023-03-05T10:20:40.605Z,99.90
2023-03-05T10:23:23.120Z,99.90
2023-03-05T10:26:06.558Z,99.90
2023-03-05T10:28:56.214Z,99.90
2023-03-05T10:31:51.651Z,99.90
2023-03-05T10:34:30.658Z,99.90
2023-03-05T10:37:07.593Z,99.90
2023-03-05T10:39:56.929Z,99.90
2023-03-05T10:43:17.191Z,99.90
2023-03-05T10:45:53.991Z,99.90
2023-03-05T10:48:47.489Z,99.90
2023-03-05T11:05:05.316Z,99.90
2023-03-05T11:07:37.429Z,99.90
2023-03-05T11:10:15.094Z,99.90
2023-03-05T11:12:43.502Z,99.90
2023-03-05T11:15:14.361Z,99.90
2023-03-05T11:18:05.045Z,99.90
2023-03-05T11:20:36.153Z,99.90
2023-03-05T11:23:24.453Z,99.90
2023-03-05T11:25:58.697Z,99.90
2023-03-05T11:28:39.457Z,99.90
2023-03-05T11:31:16.951Z,99.90
2023-03-05T11:34:02.515Z,99.90
2023-03-05T11:36:34.349Z,99.90
2023-03-05T11:39:08.862Z,99.90
2023-03-05T11:41:37.255Z,99.90
2023-03-05T11:44:29.015Z,99.90
2023-03-05T11:47:14.052Z,99.90
2023-03-05T11:49:46.607Z,99.90
2023-03-05T11:52:48.690Z,99.90
2023-03-05T11:55:19.675Z,99.90
2023-03-05T11:57:57.789Z,99.90
2023-03-05T12:00:30.799Z,99.90
2023-03-05T12:03:08.692Z,99.90
2023-03-05T12:05:41.103Z,99.90
2023-03-05T12:08:18.876Z,99.90
2023-03-05T12:10:47.268Z,99.90
2023-03-05T12:13:24.480Z,99.90
2023-03-05T12:16:37.424Z,99.90
2023-03-05T12:19:46.252Z,99.90
2023-03-05T12:22:24.471Z,99.90
2023-03-05T12:24:53.565Z,99.90
2023-03-05T12:27:36.328Z,99.90
2023-03-05T12:30:06.144Z,99.90
2023-03-05T12:32:34.599Z,99.90
2023-03-05T12:35:04.499Z,99.90
2023-03-05T12:37:33.005Z,99.90
2023-03-05T12:40:06.936Z,99.90
2023-03-05T12:42:35.226Z,99.90
2023-03-05T12:45:12.480Z,99.90
2023-03-05T12:47:42.540Z,99.90
2023-03-05T12:50:29.374Z,99.90
2023-03-05T12:53:10.929Z,99.90
2023-03-05T12:55:44.128Z,99.90
2023-03-05T12:58:27.789Z,99.90
2023-03-05T13:01:03.042Z,99.90
2023-03-05T13:03:40.350Z,99.90
2023-03-05T13:06:23.675Z,99.30
2023-03-05T13:09:25.571Z,99.90
2023-03-05T13:11:55.813Z,99.10
2023-03-05T13:14:32.673Z,99.90
2023-03-05T13:17:02.261Z,99.90
2023-03-05T13:19:32.210Z,99.90
2023-03-05T13:22:11.638Z,99.90
2023-03-05T13:24:39.916Z,99.90
2023-03-05T13:27:30.061Z,99.90
2023-03-05T13:29:58.404Z,99.90
2023-03-05T13:32:32.154Z,99.10
2023-03-05T13:35:01.895Z,99.00
2023-03-05T13:37:34.872Z,99.60
2023-03-05T13:40:34.771Z,98.90
2023-03-05T13:43:13.670Z,99.80
2023-03-05T13:45:42.218Z,99.50
2023-03-05T13:48:19.898Z,99.10
2023-03-05T13:50:55.979Z,99.40
2023-03-05T13:53:34.549Z,99.20
2023-03-05T13:56:08.922Z,99.90
2023-03-05T13:58:56.898Z,99.30
2023-03-05T14:01:44.310Z,99.50
2023-03-05T14:04:15.792Z,99.70
2023-03-05T14:06:52.964Z,99.90
2023-03-05T14:09:30.313Z,99.90
2023-03-05T14:12:05.351Z,99.90
2023-03-05T14:14:39.186Z,99.00
2023-03-05T14:17:43.242Z,99.80
2023-03-05T14:20:14.811Z,99.60
2023-03-05T14:22:46.114Z,99.60
2023-03-05T14:25:29.762Z,99.30
2023-03-05T14:27:58.952Z,98.40
2023-03-05T14:30:27.763Z,98.90
2023-03-05T14:32:57.503Z,99.40
2023-03-05T14:35:28.714Z,99.20
2023-03-05T14:37:59.319Z,99.00
2023-03-05T14:40:36.883Z,99.70
2023-03-05T14:43:11.579Z,98.70
2023-03-05T14:45:44.126Z,98.60
2023-03-05T14:48:15.127Z,98.80
2023-03-05T14:50:56.185Z,98.20
2023-03-05T14:53:30.668Z,97.90
2023-03-05T14:55:59.239Z,98.50
2023-03-05T14:58:31.254Z,99.40
2023-03-05T15:01:00.359Z,98.40
2023-03-05T15:03:28.963Z,98.50
2023-03-05T15:05:59.668Z,98.70
2023-03-05T15:08:31.241Z,98.80
2023-03-05T15:10:59.725Z,99.00
2023-03-05T15:13:28.574Z,98.10
2023-03-05T15:15:57.042Z,98.20
2023-03-05T15:18:25.582Z,98.50
2023-03-05T15:20:54.090Z,98.30
2023-03-05T15:23:22.468Z,98.30
2023-03-05T15:25:51.502Z,99.50
2023-03-05T15:28:19.919Z,99.10
2023-03-05T15:30:48.879Z,99.30
2023-03-05T15:33:18.192Z,99.20
2023-03-05T15:35:46.621Z,98.80
2023-03-05T15:38:15.274Z,99.30
2023-03-05T15:40:43.653Z,98.80
2023-03-05T15:43:12.385Z,98.70
2023-03-05T15:45:40.930Z,98.70
2023-03-05T15:48:09.811Z,99.60
2023-03-05T15:50:42.004Z,99.90
2023-03-05T15:53:13.241Z,99.90
2023-03-05T15:55:42.098Z,99.90
2023-03-05T15:58:14.050Z,99.90
2023-03-05T16:00:42.744Z,99.90
2023-03-05T16:03:11.082Z,99.90
2023-03-05T16:05:39.957Z,99.90
2023-03-05T16:08:09.379Z,99.90
2023-03-05T16:10:38.026Z,99.90
2023-03-05T16:13:12.225Z,99.90
2023-03-05T16:15:42.078Z,99.90
2023-03-05T16:18:14.695Z,99.90
2023-03-05T16:20:43.276Z,99.90
2023-03-05T16:23:11.538Z,99.90
2023-03-05T16:25:40.025Z,99.90
2023-03-05T16:28:08.233Z,99.90
2023-03-05T16:30:36.687Z,99.90
2023-03-05T16:33:05.089Z,99.90
2023-03-05T16:35:33.779Z,99.90
2023-03-05T16:38:01.991Z,99.90
2023-03-05T16:40:51.404Z,99.90
2023-03-05T16:43:18.658Z,99.90
2023-03-05T16:45:46.903Z,99.90
2023-03-05T16:48:15.187Z,99.90
2023-03-05T16:50:43.666Z,99.90
2023-03-05T16:53:11.951Z,99.90
2023-03-05T16:55:40.273Z,99.90
2023-03-05T16:58:08.742Z,99.90
2023-03-05T17:00:37.109Z,99.90
2023-03-05T17:03:05.668Z,99.90
2023-03-05T17:05:37.652Z,99.90
2023-03-05T17:08:06.267Z,99.90
2023-03-05T17:10:34.762Z,99.90
2023-03-05T17:13:03.279Z,99.90
2023-03-05T17:15:31.605Z,99.90
2023-03-05T17:18:00.399Z,99.90
2023-03-05T17:20:29.213Z,99.90
2023-03-05T17:22:57.656Z,99.90
2023-03-05T17:25:31.756Z,99.90
2023-03-05T17:28:00.318Z,99.90
2023-03-05T17:30:28.802Z,99.90
2023-03-05T17:32:57.285Z,99.90
2023-03-05T17:35:25.609Z,99.90
2023-03-05T17:37:54.002Z,99.90
2023-03-05T17:40:23.516Z,99.90
2023-03-05T17:42:52.418Z,99.90
2023-03-05T17:45:20.818Z,99.90
2023-03-05T17:47:49.373Z,99.90
2023-03-05T17:50:17.835Z,99.90
2023-03-05T17:52:46.405Z,99.90
2023-03-05T17:55:15.974Z,99.90
2023-03-05T17:57:45.616Z,99.90
2023-03-05T18:00:17.547Z,99.90
2023-03-05T18:02:46.142Z,99.90
2023-03-05T18:05:15.185Z,99.90
2023-03-05T18:07:43.652Z,99.90
2023-03-05T18:10:13.709Z,99.90
2023-03-05T18:12:42.786Z,99.90
2023-03-05T18:15:14.513Z,99.90
2023-03-05T18:17:43.487Z,99.90
2023-03-05T18:20:26.777Z,99.90
2023-03-05T18:22:56.043Z,99.90
2023-03-05T18:25:25.376Z,99.90
2023-03-05T18:27:54.770Z,99.90
2023-03-05T18:30:24.483Z,99.90
2023-03-05T18:32:52.992Z,99.90
2023-03-05T18:35:24.278Z,99.90
2023-03-05T18:37:55.260Z,99.90
2023-03-05T18:40:25.769Z,99.90
2023-03-05T18:42:54.763Z,99.90
2023-03-05T18:45:25.727Z,99.90
2023-03-05T18:47:54.445Z,99.90
2023-03-05T18:50:28.745Z,99.90
2023-03-05T18:52:57.781Z,99.90
2023-03-05T18:55:28.739Z,99.90
2023-03-05T18:57:57.480Z,99.90
2023-03-05T19:00:29.713Z,99.90
2023-03-05T19:02:58.644Z,99.90
2023-03-05T19:05:27.392Z,99.90
2023-03-05T19:07:59.687Z,99.90
2023-03-05T19:10:29.149Z,99.90
2023-03-05T19:13:17.446Z,99.90
2023-03-05T19:15:56.521Z,99.90
2023-03-05T19:18:52.332Z,99.90
2023-03-05T19:21:51.679Z,99.90
2023-03-05T19:24:21.431Z,99.90
2023-03-05T19:26:50.815Z,99.90
2023-03-05T19:29:19.108Z,99.90
2023-03-05T19:42:57.696Z,99.90
2023-03-05T19:45:26.055Z,99.90
2023-03-05T19:47:55.293Z,99.90
2023-03-05T19:50:23.846Z,99.90
2023-03-05T19:52:55.599Z,99.90
2023-03-05T19:55:24.099Z,99.90
2023-03-05T19:57:53.009Z,99.90
2023-03-05T20:00:22.717Z,99.90
2023-03-05T20:02:51.156Z,99.90
2023-03-05T20:05:19.886Z,99.90
2023-03-05T20:07:48.182Z,99.90
2023-03-05T20:10:16.865Z,99.90
2023-03-05T20:12:45.278Z,99.90
2023-03-05T20:15:17.506Z,99.90
2023-03-05T20:17:46.209Z,99.90
2023-03-05T20:20:17.498Z,99.90
2023-03-05T20:22:47.198Z,99.90
2023-03-05T20:25:17.736Z,99.90
2023-03-05T20:27:46.252Z,99.90
2023-03-05T20:30:16.087Z,99.90
2023-03-05T20:32:44.902Z,99.90
2023-03-05T20:35:18.509Z,99.90
2023-03-05T20:38:14.197Z,99.90
2023-03-05T20:40:42.921Z,99.90
2023-03-05T20:43:12.274Z,99.90
2023-03-05T20:45:40.863Z,99.90
2023-03-05T20:48:09.442Z,99.90
2023-03-05T20:50:39.041Z,99.90
2023-03-05T20:53:10.212Z,99.90
2023-03-05T20:55:38.864Z,99.90
2023-03-05T20:58:07.526Z,99.90
2023-03-05T21:00:36.580Z,99.90
2023-03-05T21:03:05.305Z,99.90
2023-03-05T21:05:35.462Z,99.90
2023-03-05T21:08:05.479Z,99.90
2023-03-05T21:10:34.077Z,99.90
2023-03-05T21:13:02.887Z,99.90
2023-03-05T21:15:32.207Z,99.90
2023-03-05T21:18:01.748Z,99.90
2023-03-05T21:20:31.206Z,99.90
2023-03-05T21:22:59.823Z,99.90
2023-03-05T21:25:30.261Z,99.90
2023-03-05T21:28:11.679Z,99.90
2023-03-05T21:43:54.397Z,99.90
2023-03-05T21:46:22.688Z,99.90
2023-03-05T21:48:51.121Z,99.90
2023-03-05T21:51:46.510Z,99.90
2023-03-05T21:54:29.050Z,99.90
2023-03-05T21:56:57.533Z,99.90
2023-03-05T21:59:25.650Z,99.90
2023-03-05T22:01:53.956Z,99.90
2023-03-05T22:04:22.278Z,99.90
2023-03-05T22:06:50.860Z,99.90
2023-03-05T22:09:19.344Z,99.90
2023-03-05T22:11:47.861Z,99.90
2023-03-05T22:14:17.008Z,99.90
2023-03-05T22:16:46.273Z,99.90
2023-03-05T22:19:16.377Z,99.90
2023-03-05T22:21:51.036Z,99.90
2023-03-05T22:24:19.543Z,99.90
2023-03-05T22:26:47.829Z,99.90
2023-03-05T22:29:16.174Z,99.90
2023-03-05T22:31:45.295Z,99.90
2023-03-05T22:34:13.443Z,99.90
2023-03-05T22:36:41.867Z,99.90
2023-03-05T22:39:10.201Z,99.90
2023-03-05T22:41:40.660Z,99.90
2023-03-05T22:44:09.178Z,99.90
2023-03-05T22:46:37.374Z,99.90
2023-03-05T22:49:05.701Z,99.90
2023-03-05T22:51:34.002Z,99.90
2023-03-05T22:54:02.497Z,99.90
2023-03-05T22:56:30.746Z,99.90
2023-03-05T22:58:59.095Z,99.90
2023-03-05T23:01:27.488Z,99.90
2023-03-05T23:04:16.607Z,99.90
2023-03-05T23:07:10.929Z,99.90
2023-03-05T23:09:39.254Z,99.90
2023-03-05T23:12:07.826Z,99.90
2023-03-05T23:14:36.211Z,99.90
2023-03-05T23:17:04.842Z,99.90
2023-03-05T23:19:33.062Z,99.90
2023-03-05T23:22:01.346Z,99.90
2023-03-05T23:24:29.693Z,99.90
2023-03-05T23:26:57.979Z,99.90
2023-03-05T23:29:34.248Z,99.90
2023-03-05T23:32:10.783Z,99.90
2023-03-05T23:34:39.013Z,99.90
2023-03-05T23:37:07.240Z,99.90
2023-03-05T23:39:35.432Z,99.90
2023-03-05T23:42:03.742Z,99.90
2023-03-05T23:44:32.096Z,99.90
2023-03-05T23:47:00.322Z,99.90
2023-03-05T23:51:29.372Z,99.90
2023-03-05T23:53:57.614Z,99.90
2023-03-05T23:56:25.866Z,99.90
2023-03-05T23:58:54.173Z,99.90
